Main page
METAR-TAF:

METAR-TAF

Airports :

Beirut Air Base

Beirut, Lebanon

latitude: 33-49N, longitude: 035-29E, elevation: 29 m

Current weather observation

The report was made 44 minutes ago, at 01:00 UTC
Wind 6 kt from the East/Southeast
Temperature 11°C
Humidity 66%
Pressure 1020 hPa
Visibility: 7000 m
Few clouds at a height of 4000 ft

METAR: OLBA 220100Z 12006KT 7000 FEW040 11/05 Q1020 NOSIG

Time: 03:44 (01:44 UTC)

Forecast

The report was made 3 hours and 44 minutes ago, at 22:00 UTC
Forecast valid from 22 at 00 UTC to 23 at 06 UTC
Wind 3 kt from variable directions
Visibility: 8000 m
Few clouds at a height of 3000 ft
Becoming
from 22 at 09 UTC to 22 at 12 UTC
Wind 10 kt from the North with gusts up to 20 kt
Becoming
from 22 at 21 UTC to 22 at 24 UTC
Wind 3 kt from variable directions

TAF: OLBA 212200Z 2200/2306 VRB03KT 8000 FEW030 BECMG 2209/2212 36010G20KT BECMG 2221/2224 VRB03KT

Weather observations and forecasts of more than 4000 airports (METAR and TAF reports).

The available stations are represented by yellow and red dots on the map.

Hover mouse over dot to see the name of the station.

Then click to see weather observations and forecasts.

To change the map : click on the green buttons with a black cross to zoom in, on the green button with a dash to zoom out, or on the green arrows for adjacent maps.


METAR-TAF: